Time;durP1;ratioP1;P1;durP2;ratioP2;P2;SDS_P1;SDS_P2;PMS_P1;PMS_P2;Temp;Humidity;BMP_temperature;BMP_pressure;BME280_temperature;BME280_humidity;BME280_pressure;Samples;Min_cycle;Max_cycle;Signal;HPM_P1;HPM_P2
2022/07/09 00:00:51;;;;;;;2.88;1.83;;;19.30;95.60;;;;;;4176971;28;20037;-68
2022/07/09 00:02:53;;;;;;;2.95;2.00;;;19.20;95.60;;;;;;4176672;28;20074;-68
2022/07/09 00:04:54;;;;;;;3.40;2.55;;;19.20;95.70;;;;;;4177224;28;20440;-67
2022/07/09 00:06:55;;;;;;;2.40;1.77;;;19.10;95.80;;;;;;4176732;28;20041;-67
2022/07/09 00:08:56;;;;;;;4.97;2.60;;;19.10;95.90;;;;;;4177044;28;20451;-67
2022/07/09 00:10:58;;;;;;;6.60;2.85;;;19.10;96.10;;;;;;4176326;28;20037;-67
2022/07/09 00:12:59;;;;;;;2.47;1.95;;;19.00;96.10;;;;;;4177127;28;20040;-68
2022/07/09 00:15:00;;;;;;;3.67;1.83;;;19.00;96.10;;;;;;4177100;28;20029;-68
2022/07/09 00:17:01;;;;;;;2.92;2.25;;;19.00;96.10;;;;;;4176976;28;20029;-67
2022/07/09 00:19:02;;;;;;;3.13;2.13;;;19.00;96.30;;;;;;4176986;28;20029;-68
2022/07/09 00:21:04;;;;;;;2.08;1.90;;;18.90;96.40;;;;;;4176914;28;20091;-67
2022/07/09 00:23:05;;;;;;;2.72;1.83;;;18.90;96.50;;;;;;4177143;28;20021;-67
2022/07/09 00:25:07;;;;;;;2.20;2.00;;;18.90;96.70;;;;;;4176514;28;20118;-68
2022/07/09 00:27:08;;;;;;;6.13;2.05;;;18.80;96.70;;;;;;4176990;28;20036;-68
2022/07/09 00:29:09;;;;;;;2.13;1.92;;;18.80;96.80;;;;;;4176338;28;20101;-69
2022/07/09 00:31:10;;;;;;;2.45;2.10;;;18.80;96.80;;;;;;4177052;28;20469;-69
2022/07/09 00:33:11;;;;;;;3.38;2.13;;;18.80;96.90;;;;;;4175914;28;20082;-69
2022/07/09 00:35:12;;;;;;;2.78;2.00;;;18.90;96.90;;;;;;4177016;28;20497;-68
2022/07/09 00:37:14;;;;;;;3.50;2.03;;;18.90;96.90;;;;;;4176441;28;20021;-68
2022/07/09 00:39:15;;;;;;;6.88;1.95;;;18.90;96.90;;;;;;4176981;28;20021;-69
2022/07/09 00:41:16;;;;;;;5.82;2.08;;;18.90;97.00;;;;;;4176216;28;20033;-68
2022/07/09 00:43:22;;;;;;;2.47;2.00;;;18.90;97.10;;;;;;4176133;28;20036;-69
2022/07/09 00:45:23;;;;;;;4.07;1.83;;;18.90;97.30;;;;;;4176553;28;20041;-68
2022/07/09 00:47:25;;;;;;;3.58;1.92;;;18.90;97.20;;;;;;4176436;28;20052;-68
2022/07/09 00:49:29;;;;;;;2.88;2.25;;;18.90;97.30;;;;;;4176687;28;20075;-68
2022/07/09 00:51:31;;;;;;;6.90;2.30;;;18.90;97.40;;;;;;4175540;28;20045;-68
2022/07/09 00:53:33;;;;;;;3.47;2.17;;;18.90;97.50;;;;;;4176540;28;20469;-68
2022/07/09 00:55:35;;;;;;;4.63;2.35;;;18.90;97.60;;;;;;4176231;28;20028;-70
2022/07/09 00:57:38;;;;;;;3.85;1.95;;;18.90;97.60;;;;;;4176481;28;20418;-68
2022/07/09 00:59:40;;;;;;;3.05;1.95;;;18.80;97.60;;;;;;4176278;28;20033;-68
2022/07/09 01:01:41;;;;;;;2.65;2.00;;;18.80;97.70;;;;;;4176799;28;20375;-68
2022/07/09 01:03:42;;;;;;;2.00;1.80;;;18.80;97.80;;;;;;4176202;28;20531;-68
2022/07/09 01:05:44;;;;;;;4.15;2.20;;;18.80;97.80;;;;;;4176807;28;20033;-68
2022/07/09 01:07:46;;;;;;;2.13;1.70;;;18.80;97.80;;;;;;4175978;28;20041;-68
2022/07/09 01:09:47;;;;;;;2.22;1.98;;;18.80;97.90;;;;;;4177280;28;20025;-68
2022/07/09 01:11:48;;;;;;;2.17;1.80;;;18.80;98.00;;;;;;4179485;28;20025;-67
2022/07/09 01:13:50;;;;;;;3.60;2.05;;;18.80;98.00;;;;;;4179853;28;20029;-68
2022/07/09 01:15:51;;;;;;;2.90;1.63;;;18.80;98.00;;;;;;4179540;28;20075;-68
2022/07/09 01:17:55;;;;;;;2.25;2.05;;;18.80;98.30;;;;;;4179626;28;20075;-68
2022/07/09 01:19:56;;;;;;;4.22;2.17;;;18.80;98.00;;;;;;4179740;28;20814;-67
2022/07/09 01:21:58;;;;;;;3.13;2.10;;;18.80;98.20;;;;;;4180118;28;20017;-67
2022/07/09 01:24:00;;;;;;;6.20;2.90;;;18.70;98.30;;;;;;4179140;28;20074;-68
2022/07/09 01:26:01;;;;;;;6.40;2.15;;;18.70;98.40;;;;;;4179225;28;20025;-67
2022/07/09 01:28:07;;;;;;;3.63;2.55;;;18.60;98.50;;;;;;4179474;28;20037;-68
2022/07/09 01:30:08;;;;;;;2.63;1.88;;;18.70;98.60;;;;;;4179403;28;20029;-69
2022/07/09 01:32:09;;;;;;;2.17;1.67;;;18.60;98.60;;;;;;4179372;28;20091;-68
2022/07/09 01:34:10;;;;;;;2.30;2.10;;;18.60;98.70;;;;;;4179221;28;20137;-68
2022/07/09 01:36:12;;;;;;;3.17;1.83;;;18.50;98.90;;;;;;4179815;28;20032;-68
2022/07/09 01:38:13;;;;;;;5.22;2.08;;;18.50;99.00;;;;;;4178865;28;20362;-68
2022/07/09 01:40:14;;;;;;;3.20;2.20;;;18.50;99.20;;;;;;4179683;28;20366;-68
2022/07/09 01:42:19;;;;;;;3.38;2.08;;;18.40;99.20;;;;;;4179103;28;20079;-68
2022/07/09 01:44:20;;;;;;;2.55;2.35;;;18.40;99.50;;;;;;4179575;28;20555;-68
2022/07/09 01:46:21;;;;;;;3.50;2.47;;;18.40;99.50;;;;;;4178480;28;20080;-68
2022/07/09 01:48:23;;;;;;;4.78;2.35;;;18.40;99.60;;;;;;4179146;28;20107;-68
2022/07/09 01:50:24;;;;;;;2.72;1.88;;;18.40;99.80;;;;;;4179098;28;20056;-68
2022/07/09 01:52:25;;;;;;;3.17;2.00;;;18.40;99.90;;;;;;4179609;28;20094;-68
2022/07/09 01:54:27;;;;;;;4.68;2.08;;;18.40;99.90;;;;;;4179021;28;20033;-68
2022/07/09 01:56:28;;;;;;;6.32;1.88;;;18.40;99.90;;;;;;4178934;28;20455;-68
2022/07/09 01:58:29;;;;;;;3.17;2.00;;;18.30;99.90;;;;;;4178997;28;20033;-68
2022/07/09 02:00:30;;;;;;;2.47;1.98;;;18.30;99.90;;;;;;4179070;28;20091;-69
2022/07/09 02:02:32;;;;;;;4.18;1.90;;;18.30;99.90;;;;;;4179121;28;20029;-68
2022/07/09 02:04:33;;;;;;;4.35;2.17;;;18.40;99.90;;;;;;4176974;28;20045;-68
2022/07/09 02:06:34;;;;;;;4.75;1.92;;;18.40;99.90;;;;;;4179123;28;20102;-68
2022/07/09 02:08:36;;;;;;;2.30;1.65;;;18.40;99.90;;;;;;4178585;28;20481;-68
2022/07/09 02:10:38;;;;;;;4.47;2.28;;;18.40;99.90;;;;;;4178939;28;20087;-69
2022/07/09 02:12:40;;;;;;;2.50;1.90;;;18.40;99.90;;;;;;4178626;28;20544;-69
2022/07/09 02:14:41;;;;;;;2.15;1.95;;;18.30;99.90;;;;;;4179092;28;20045;-69
2022/07/09 02:16:42;;;;;;;3.47;2.03;;;18.30;99.90;;;;;;4178370;28;20021;-69
2022/07/09 02:18:44;;;;;;;2.15;1.70;;;18.30;99.90;;;;;;4179063;28;20087;-68
2022/07/09 02:20:46;;;;;;;1.88;1.77;;;18.30;99.90;;;;;;4178409;28;20033;-68
2022/07/09 02:22:47;;;;;;;1.92;1.80;;;18.20;99.90;;;;;;4178675;28;20037;-68
2022/07/09 02:24:48;;;;;;;2.35;1.83;;;18.30;99.90;;;;;;4178596;28;20032;-69
2022/07/09 02:26:49;;;;;;;3.53;2.00;;;18.20;99.90;;;;;;4178465;28;20807;-69
2022/07/09 02:28:50;;;;;;;7.25;2.00;;;18.20;99.90;;;;;;4178681;28;20021;-68
2022/07/09 02:30:51;;;;;;;8.15;3.63;;;18.20;99.90;;;;;;4178617;28;20055;-68
2022/07/09 02:32:52;;;;;;;3.35;1.90;;;18.10;99.90;;;;;;4178576;28;20094;-68
2022/07/09 02:34:54;;;;;;;2.47;2.28;;;18.10;99.90;;;;;;4178206;28;20083;-68
2022/07/09 02:36:55;;;;;;;3.75;2.00;;;18.10;99.90;;;;;;4178332;28;20135;-70
2022/07/09 02:38:56;;;;;;;2.28;1.77;;;18.10;99.90;;;;;;4178076;28;20033;-69
2022/07/09 02:40:58;;;;;;;2.58;1.67;;;18.10;99.90;;;;;;4178573;28;20029;-69
2022/07/09 02:42:59;;;;;;;2.33;2.10;;;18.10;99.90;;;;;;4177738;28;20147;-68
2022/07/09 02:45:01;;;;;;;2.22;2.03;;;18.10;99.90;;;;;;4178753;28;20122;-68
2022/07/09 02:47:02;;;;;;;4.03;2.60;;;18.10;99.90;;;;;;4177771;28;20395;-68
2022/07/09 02:49:03;;;;;;;2.42;1.90;;;18.20;99.90;;;;;;4178490;28;20699;-67
2022/07/09 02:51:05;;;;;;;2.78;1.85;;;18.10;99.90;;;;;;4178208;28;20804;-68
2022/07/09 02:53:06;;;;;;;5.03;1.92;;;18.20;99.90;;;;;;4178632;28;20087;-68
2022/07/09 02:55:07;;;;;;;2.03;1.80;;;18.20;99.90;;;;;;4178151;28;20090;-67
2022/07/09 02:57:09;;;;;;;2.65;2.15;;;18.20;99.90;;;;;;4177422;28;20462;-67
2022/07/09 02:59:10;;;;;;;3.47;2.28;;;18.20;99.90;;;;;;4178307;28;20484;-68
2022/07/09 03:01:11;;;;;;;2.13;1.92;;;18.20;99.90;;;;;;4178053;28;20036;-67
2022/07/09 03:03:12;;;;;;;9.55;2.88;;;18.30;99.90;;;;;;4177633;28;20048;-68
2022/07/09 03:05:14;;;;;;;4.53;2.10;;;18.20;99.90;;;;;;4177868;28;20041;-68
2022/07/09 03:07:15;;;;;;;2.13;1.92;;;18.20;99.90;;;;;;4177637;28;20098;-68
2022/07/09 03:09:16;;;;;;;3.45;1.90;;;18.10;99.90;;;;;;4177675;28;20086;-67
2022/07/09 03:11:17;;;;;;;3.55;2.00;;;18.10;99.90;;;;;;4177957;28;20033;-67
2022/07/09 03:13:18;;;;;;;2.42;2.20;;;18.10;99.90;;;;;;4177627;28;20091;-68
2022/07/09 03:15:19;;;;;;;1.60;1.50;;;18.20;99.90;;;;;;4178223;28;20029;-68
2022/07/09 03:17:21;;;;;;;2.58;1.88;;;18.20;99.90;;;;;;4177379;28;20045;-67
2022/07/09 03:19:22;;;;;;;5.63;2.28;;;18.10;99.90;;;;;;4177972;28;20098;-67
2022/07/09 03:21:23;;;;;;;3.15;1.60;;;18.10;99.90;;;;;;4177384;28;20086;-67
2022/07/09 03:23:24;;;;;;;2.78;2.47;;;18.10;99.90;;;;;;4178202;28;20439;-67
2022/07/09 03:25:25;;;;;;;2.63;1.90;;;18.10;99.90;;;;;;4177397;28;20033;-67
2022/07/09 03:27:26;;;;;;;2.65;1.90;;;18.20;99.90;;;;;;4177581;28;20044;-67
2022/07/09 03:29:28;;;;;;;2.63;2.05;;;18.20;99.90;;;;;;4177687;28;20087;-68
2022/07/09 03:31:29;;;;;;;2.05;1.85;;;18.20;99.90;;;;;;4177750;28;20175;-69
2022/07/09 03:33:30;;;;;;;1.88;1.70;;;18.20;99.90;;;;;;4177035;28;20021;-69
2022/07/09 03:35:31;;;;;;;3.17;1.83;;;18.20;99.90;;;;;;4177370;28;20025;-69
2022/07/09 03:37:33;;;;;;;3.45;2.25;;;18.20;99.90;;;;;;4177631;28;20444;-67
2022/07/09 03:39:34;;;;;;;2.30;2.10;;;18.30;99.90;;;;;;4177173;28;20036;-68
2022/07/09 03:41:35;;;;;;;4.63;1.90;;;18.30;99.90;;;;;;4177609;28;20080;-68
2022/07/09 03:43:37;;;;;;;2.50;2.05;;;18.40;99.90;;;;;;4176320;28;20040;-68
2022/07/09 03:45:38;;;;;;;6.50;2.00;;;18.40;99.90;;;;;;4177548;28;20029;-68
2022/07/09 03:47:39;;;;;;;4.40;2.30;;;18.50;99.90;;;;;;4176888;28;20122;-68
2022/07/09 03:49:40;;;;;;;3.55;2.17;;;18.60;99.90;;;;;;4177446;28;20032;-67
2022/07/09 03:51:43;;;;;;;2.67;1.70;;;18.70;99.90;;;;;;4176900;28;20041;-68
2022/07/09 03:53:44;;;;;;;3.63;1.92;;;18.80;99.90;;;;;;4177554;28;20037;-68
2022/07/09 03:55:45;;;;;;;3.05;2.17;;;18.90;99.90;;;;;;4176698;28;20079;-68
2022/07/09 03:57:46;;;;;;;3.58;2.08;;;19.00;99.90;;;;;;4176903;28;20076;-68
2022/07/09 03:59:47;;;;;;;3.10;2.40;;;19.10;99.90;;;;;;4176980;28;20058;-67
2022/07/09 04:01:48;;;;;;;2.78;2.30;;;19.30;99.90;;;;;;4176898;28;20038;-68
2022/07/09 04:03:50;;;;;;;3.75;2.00;;;19.50;99.90;;;;;;4176983;28;20051;-69
2022/07/09 04:05:51;;;;;;;3.67;2.03;;;19.70;99.90;;;;;;4176952;28;20049;-69
2022/07/09 04:07:52;;;;;;;4.90;2.20;;;19.90;99.90;;;;;;4177103;28;20033;-69
2022/07/09 04:09:54;;;;;;;6.22;2.30;;;20.20;99.90;;;;;;4176749;28;20354;-69
2022/07/09 04:11:55;;;;;;;3.22;1.70;;;20.40;99.90;;;;;;4177201;28;20425;-68
2022/07/09 04:13:56;;;;;;;3.42;2.00;;;20.50;99.90;;;;;;4176401;28;20078;-69
2022/07/09 04:15:57;;;;;;;2.08;1.90;;;20.80;99.90;;;;;;4177029;28;20025;-69
2022/07/09 04:17:58;;;;;;;4.32;2.38;;;21.40;99.50;;;;;;4174830;28;20045;-68
2022/07/09 04:19:59;;;;;;;2.95;2.20;;;21.80;99.00;;;;;;4177037;28;20052;-69
2022/07/09 04:22:02;;;;;;;3.72;1.70;;;22.20;98.30;;;;;;4176981;28;20398;-69
2022/07/09 04:24:03;;;;;;;2.10;1.90;;;22.30;97.90;;;;;;4176853;28;20041;-69
2022/07/09 04:26:04;;;;;;;6.68;2.40;;;22.60;97.50;;;;;;4176498;28;20511;-69
2022/07/09 04:28:05;;;;;;;6.35;2.15;;;23.10;97.10;;;;;;4175224;28;20480;-68
2022/07/09 04:30:08;;;;;;;2.95;2.08;;;23.70;96.40;;;;;;4174999;28;20078;-68
2022/07/09 04:32:10;;;;;;;6.78;1.77;;;23.70;95.80;;;;;;4175928;28;20021;-67
2022/07/09 04:34:11;;;;;;;3.67;1.83;;;23.80;95.50;;;;;;4175830;28;20049;-68
2022/07/09 04:36:13;;;;;;;2.92;2.10;;;24.00;95.20;;;;;;4175343;28;20033;-68
2022/07/09 04:38:14;;;;;;;2.80;2.20;;;24.00;94.90;;;;;;4176073;28;20086;-69
2022/07/09 04:40:15;;;;;;;3.67;2.10;;;24.10;94.80;;;;;;4175475;28;20029;-68
2022/07/09 04:42:17;;;;;;;3.72;2.10;;;24.10;94.70;;;;;;4175703;28;20107;-69
2022/07/09 04:44:18;;;;;;;2.83;2.20;;;24.70;94.20;;;;;;4174249;28;20037;-68
2022/07/09 04:46:21;;;;;;;2.50;1.90;;;25.10;93.70;;;;;;4175926;28;20095;-67
2022/07/09 04:48:22;;;;;;;6.18;2.38;;;25.50;93.10;;;;;;4175268;28;20478;-68
2022/07/09 04:50:23;;;;;;;2.00;1.90;;;25.90;92.50;;;;;;4176073;28;20095;-68
2022/07/09 04:52:26;;;;;;;4.13;2.35;;;25.80;92.10;;;;;;4175794;28;20485;-68
2022/07/09 04:54:27;;;;;;;3.10;2.00;;;25.70;92.20;;;;;;4175868;28;20447;-68
2022/07/09 04:56:30;;;;;;;3.92;2.05;;;25.70;92.20;;;;;;4174740;28;20085;-69
2022/07/09 04:58:31;;;;;;;3.28;2.28;;;26.10;91.90;;;;;;4175827;28;20082;-69
2022/07/09 05:00:33;;;;;;;3.22;2.28;;;26.40;91.50;;;;;;4175518;28;20045;-68
2022/07/09 05:02:34;;;;;;;4.88;2.17;;;26.30;91.20;;;;;;4175736;28;20071;-68
2022/07/09 05:04:35;;;;;;;3.13;2.00;;;26.50;90.90;;;;;;4175579;28;20059;-69
2022/07/09 05:06:37;;;;;;;2.08;1.88;;;26.70;90.60;;;;;;4174449;28;20045;-69
2022/07/09 05:08:38;;;;;;;3.00;2.20;;;26.90;90.20;;;;;;4174932;28;20558;-69
2022/07/09 05:10:39;;;;;;;4.20;2.40;;;27.40;90.00;;;;;;4175242;28;20025;-68
2022/07/09 05:12:40;;;;;;;2.38;2.00;;;27.60;89.10;;;;;;4175321;28;20091;-69
2022/07/09 05:14:41;;;;;;;2.58;2.38;;;27.70;88.70;;;;;;4175229;28;20110;-69
2022/07/09 05:16:44;;;;;;;3.67;2.55;;;27.90;88.20;;;;;;4175162;28;20534;-69
2022/07/09 05:18:45;;;;;;;3.28;2.65;;;27.30;88.20;;;;;;4175200;28;20079;-68
2022/07/09 05:20:46;;;;;;;3.58;2.25;;;26.80;88.50;;;;;;4175796;28;20045;-70
2022/07/09 05:22:48;;;;;;;3.67;2.25;;;26.90;88.90;;;;;;4175176;28;20041;-69
2022/07/09 05:24:49;;;;;;;4.70;2.47;;;26.90;88.70;;;;;;4175435;28;20033;-69
2022/07/09 05:26:50;;;;;;;5.78;2.20;;;27.10;88.40;;;;;;4175140;28;20086;-69
2022/07/09 05:28:52;;;;;;;14.32;8.20;;;27.10;88.00;;;;;;4175539;28;20083;-69
2022/07/09 05:30:53;;;;;;;3.72;2.20;;;27.10;87.50;;;;;;4175635;28;20025;-69
2022/07/09 05:32:54;;;;;;;3.40;2.40;;;26.90;87.50;;;;;;4174849;28;20041;-69
2022/07/09 05:34:56;;;;;;;2.28;2.05;;;26.70;87.80;;;;;;4175119;28;20091;-68
2022/07/09 05:36:58;;;;;;;3.00;2.13;;;26.50;87.90;;;;;;4175373;28;20025;-69
2022/07/09 05:39:00;;;;;;;3.05;2.40;;;26.60;87.90;;;;;;4175398;28;20075;-68
2022/07/09 05:41:01;;;;;;;6.22;2.45;;;26.80;87.90;;;;;;4174994;28;20074;-68
2022/07/09 05:43:02;;;;;;;5.00;2.42;;;27.30;87.10;;;;;;4175539;28;20469;-68
2022/07/09 05:45:04;;;;;;;6.43;2.13;;;27.50;86.40;;;;;;4189789;28;20021;-69
2022/07/09 05:47:06;;;;;;;4.03;2.08;;;27.20;86.20;;;;;;4191102;28;20037;-69
2022/07/09 05:49:07;;;;;;;2.95;2.20;;;27.10;86.20;;;;;;4190983;28;20086;-69
2022/07/09 05:51:08;;;;;;;2.85;2.25;;;27.00;86.40;;;;;;4190441;28;20157;-67
2022/07/09 05:53:09;;;;;;;3.55;2.13;;;27.00;86.40;;;;;;4190876;28;20469;-67
2022/07/09 05:55:11;;;;;;;3.42;1.73;;;27.10;86.30;;;;;;4192213;28;20042;-69
2022/07/09 05:57:12;;;;;;;2.53;1.75;;;27.40;85.90;;;;;;4193945;28;20044;-68
2022/07/09 05:59:13;;;;;;;3.97;2.00;;;27.50;85.90;;;;;;4195073;28;20044;-70
2022/07/09 06:01:15;;;;;;;3.88;2.20;;;27.70;85.60;;;;;;4179787;28;20467;-69
2022/07/09 06:03:16;;;;;;;6.03;2.42;;;27.90;85.10;;;;;;4182208;28;20500;-70
2022/07/09 06:05:19;;;;;;;3.42;1.50;;;27.80;85.10;;;;;;4178599;28;20537;-73
2022/07/09 06:07:20;;;;;;;1.98;1.88;;;27.80;85.00;;;;;;4178489;28;20082;-74
2022/07/09 06:09:21;;;;;;;5.20;1.77;;;27.70;84.80;;;;;;4178243;28;20037;-71
2022/07/09 06:11:22;;;;;;;3.58;2.13;;;27.70;85.00;;;;;;4177033;28;20115;-73
2022/07/09 06:13:23;;;;;;;3.10;1.75;;;27.60;84.60;;;;;;4177995;28;20029;-72
2022/07/09 06:15:25;;;;;;;2.22;2.00;;;27.80;84.70;;;;;;4177370;28;20029;-70
2022/07/09 06:17:26;;;;;;;1.90;1.67;;;27.40;84.40;;;;;;4177750;28;20037;-73
2022/07/09 06:19:27;;;;;;;1.98;1.70;;;27.00;84.70;;;;;;4182409;28;20029;-68
2022/07/09 06:21:28;;;;;;;2.28;1.50;;;26.90;85.30;;;;;;4162250;28;20543;-69
2022/07/09 06:23:29;;;;;;;3.40;2.20;;;27.10;85.20;;;;;;4161916;28;20029;-71
2022/07/09 06:25:30;;;;;;;4.95;2.10;;;27.40;84.60;;;;;;4161919;28;20037;-73
2022/07/09 06:27:31;;;;;;;5.28;1.73;;;27.50;84.70;;;;;;4161157;28;20099;-69
2022/07/09 06:29:33;;;;;;;2.67;2.20;;;27.60;84.30;;;;;;4173998;28;20029;-73
2022/07/09 06:31:35;;;;;;;2.60;2.00;;;27.60;84.20;;;;;;4194561;28;20456;-70
2022/07/09 06:33:36;;;;;;;1.70;1.50;;;27.70;84.30;;;;;;4194923;28;20044;-68
2022/07/09 06:35:37;;;;;;;7.50;2.08;;;27.40;83.80;;;;;;4194842;28;20366;-70
2022/07/09 06:37:38;;;;;;;3.28;1.88;;;27.40;84.10;;;;;;4194676;28;20050;-69
2022/07/09 06:39:46;;;;;;;3.17;1.80;;;27.40;84.10;;;;;;4194606;28;20040;-72
2022/07/09 06:41:47;;;;;;;2.90;1.60;;;27.50;84.00;;;;;;4194594;28;20037;-72
2022/07/09 06:43:48;;;;;;;6.30;2.20;;;27.70;83.70;;;;;;4194282;28;20037;-71
2022/07/09 06:45:49;;;;;;;4.40;2.00;;;27.70;83.60;;;;;;4180120;28;20037;-73
2022/07/09 06:47:52;;;;;;;3.10;2.00;;;27.10;84.00;;;;;;4178160;28;20543;-67
2022/07/09 06:49:53;;;;;;;2.53;1.70;;;26.90;85.10;;;;;;4177858;28;20013;-73
2022/07/09 06:51:55;;;;;;;2.00;1.63;;;27.10;84.90;;;;;;4176800;28;20033;-69
2022/07/09 06:53:56;;;;;;;3.55;1.63;;;27.10;85.00;;;;;;4177861;28;20037;-67
2022/07/09 06:55:57;;;;;;;2.85;1.63;;;26.90;85.00;;;;;;4177777;28;20095;-68
2022/07/09 06:57:59;;;;;;;2.63;1.58;;;27.00;85.10;;;;;;4176995;28;20025;-70
2022/07/09 07:00:01;;;;;;;4.57;2.05;;;27.10;85.00;;;;;;4178809;28;20028;-67
2022/07/09 07:02:02;;;;;;;8.68;2.30;;;27.00;85.20;;;;;;4181373;28;20028;-69
2022/07/09 07:04:04;;;;;;;8.77;3.13;;;27.10;84.90;;;;;;4194132;28;20137;-68
2022/07/09 07:06:05;;;;;;;6.68;1.95;;;26.50;85.20;;;;;;4193392;28;20036;-70
2022/07/09 07:08:06;;;;;;;2.38;1.90;;;26.70;85.30;;;;;;4193138;28;20048;-68
2022/07/09 07:10:08;;;;;;;5.80;2.00;;;26.60;85.20;;;;;;4194067;28;20582;-69
2022/07/09 07:12:09;;;;;;;2.17;1.50;;;26.70;85.00;;;;;;4192079;28;20040;-70
2022/07/09 07:14:11;;;;;;;1.77;1.67;;;26.90;84.90;;;;;;4193991;28;20095;-69
2022/07/09 07:16:12;;;;;;;3.85;2.47;;;27.30;84.50;;;;;;4184403;28;20102;-72
2022/07/09 07:18:13;;;;;;;1.48;1.10;;;27.30;83.60;;;;;;4177482;28;20075;-69
2022/07/09 07:20:15;;;;;;;2.45;1.40;;;26.10;82.30;;;;;;4177862;28;20028;-68
2022/07/09 07:22:16;;;;;;;2.25;1.63;;;25.30;82.90;;;;;;4177785;28;20405;-70
2022/07/09 07:24:17;;;;;;;3.38;1.48;;;25.00;83.50;;;;;;4177053;28;20021;-68
2022/07/09 07:26:18;;;;;;;3.17;1.45;;;25.00;83.40;;;;;;4177640;28;20033;-70
2022/07/09 07:28:20;;;;;;;3.53;1.73;;;25.30;83.20;;;;;;4176913;28;20087;-68
2022/07/09 07:30:21;;;;;;;2.70;1.60;;;25.30;82.80;;;;;;4167526;28;20044;-69
2022/07/09 07:32:22;;;;;;;1.63;1.40;;;25.50;83.00;;;;;;4176369;28;20025;-68
2022/07/09 07:34:24;;;;;;;17.55;3.28;;;26.10;82.40;;;;;;4180384;28;20097;-69
2022/07/09 07:36:26;;;;;;;2.60;1.60;;;26.00;81.90;;;;;;4192832;28;20032;-69
2022/07/09 07:38:27;;;;;;;4.57;3.35;;;25.70;82.10;;;;;;4193448;28;20046;-69
2022/07/09 07:40:29;;;;;;;1.88;1.63;;;25.20;82.20;;;;;;4191219;28;20164;-69
2022/07/09 07:42:30;;;;;;;3.65;1.70;;;24.90;83.00;;;;;;4193442;28;20078;-69
2022/07/09 07:44:31;;;;;;;6.78;1.50;;;25.10;83.40;;;;;;4191660;28;20535;-68
2022/07/09 07:46:32;;;;;;;3.20;1.70;;;25.50;83.30;;;;;;4193140;28;20110;-68
2022/07/09 07:48:36;;;;;;;3.15;1.73;;;25.70;82.90;;;;;;4192727;28;20056;-69
2022/07/09 07:50:38;;;;;;;1.60;1.40;;;25.70;82.90;;;;;;4188885;28;20066;-69
2022/07/09 07:52:39;;;;;;;2.28;1.50;;;25.70;82.40;;;;;;4193246;28;20024;-69
2022/07/09 07:54:40;;;;;;;1.65;1.55;;;25.20;82.90;;;;;;4190619;28;20032;-68
2022/07/09 07:56:41;;;;;;;2.53;1.42;;;25.10;83.40;;;;;;4192448;28;20056;-69
2022/07/09 07:58:43;;;;;;;2.03;1.52;;;25.20;83.40;;;;;;4175417;28;20040;-68
2022/07/09 08:00:44;;;;;;;5.65;1.80;;;25.10;83.60;;;;;;4178128;28;20063;-68
2022/07/09 08:02:45;;;;;;;2.42;1.50;;;24.90;83.30;;;;;;4177734;28;20044;-67
2022/07/09 08:04:47;;;;;;;2.42;1.80;;;24.70;83.90;;;;;;4193292;28;20036;-68
2022/07/09 08:06:48;;;;;;;1.85;1.52;;;24.60;83.90;;;;;;4192611;28;20037;-68
2022/07/09 08:08:49;;;;;;;2.72;1.67;;;24.50;84.40;;;;;;4192961;28;20032;-68
2022/07/09 08:10:50;;;;;;;2.65;1.63;;;24.50;84.30;;;;;;4191706;28;20546;-69
2022/07/09 08:12:52;;;;;;;3.83;1.52;;;24.60;84.20;;;;;;4187538;28;20070;-67
2022/07/09 08:14:53;;;;;;;6.32;2.13;;;24.40;84.20;;;;;;4176630;28;20028;-66
2022/07/09 08:16:54;;;;;;;2.35;1.80;;;24.60;84.60;;;;;;4192599;28;20472;-66
2022/07/09 08:18:56;;;;;;;3.85;1.50;;;24.60;85.30;;;;;;4185034;28;20028;-67
2022/07/09 08:20:57;;;;;;;4.07;2.13;;;24.70;84.40;;;;;;4176219;28;20366;-67
2022/07/09 08:22:58;;;;;;;3.22;1.67;;;24.60;84.60;;;;;;4181994;28;20499;-68
2022/07/09 08:24:59;;;;;;;1.70;1.60;;;24.60;84.80;;;;;;4189131;28;20016;-73
2022/07/09 08:27:00;;;;;;;1.92;1.60;;;24.70;84.80;;;;;;4175875;28;20320;-66
2022/07/09 08:29:01;;;;;;;12.80;2.25;;;24.70;83.90;;;;;;4178438;28;20099;-68
2022/07/09 08:31:03;;;;;;;2.35;1.63;;;24.80;84.80;;;;;;4175210;28;20074;-67
2022/07/09 08:33:04;;;;;;;2.20;1.88;;;24.70;85.10;;;;;;4175261;28;20037;-67
2022/07/09 08:35:06;;;;;;;5.70;2.15;;;25.00;85.70;;;;;;4175893;28;20037;-67
2022/07/09 08:37:07;;;;;;;2.75;1.60;;;25.30;85.00;;;;;;4175786;28;20020;-66
2022/07/09 08:39:09;;;;;;;7.50;2.10;;;25.40;84.90;;;;;;4175940;28;20443;-67
2022/07/09 08:41:10;;;;;;;9.25;3.35;;;25.10;84.70;;;;;;4175892;28;20057;-66
2022/07/09 08:43:11;;;;;;;3.67;2.30;;;25.00;84.60;;;;;;4175889;28;20033;-72
2022/07/09 08:45:16;;;;;;;1.88;1.70;;;25.00;83.80;;;;;;4173816;28;20051;-67
2022/07/09 08:47:17;;;;;;;5.88;1.50;;;25.00;83.40;;;;;;4171507;28;20420;-68
2022/07/09 08:49:19;;;;;;;2.67;1.80;;;25.00;83.70;;;;;;4173333;28;20138;-66
2022/07/09 08:51:22;;;;;;;1.70;1.60;;;25.20;83.50;;;;;;4175874;28;20025;-68
2022/07/09 08:53:23;;;;;;;1.75;1.30;;;25.20;82.70;;;;;;4164761;28;20029;-66
2022/07/09 08:55:28;;;;;;;1.88;1.60;;;25.40;82.80;;;;;;4172322;28;20037;-66
2022/07/09 08:57:30;;;;;;;4.07;1.88;;;25.50;82.70;;;;;;4184351;28;20040;-67
2022/07/09 08:59:32;;;;;;;1.60;1.50;;;25.10;83.20;;;;;;4174186;28;20159;-67
2022/07/09 09:01:34;;;;;;;3.22;1.60;;;24.80;83.70;;;;;;4174124;28;20036;-67
2022/07/09 09:03:35;;;;;;;1.70;1.35;;;24.80;83.40;;;;;;4174504;28;20431;-68
2022/07/09 09:05:36;;;;;;;4.75;2.00;;;24.50;83.80;;;;;;4175491;28;20393;-68
2022/07/09 09:07:37;;;;;;;2.97;1.65;;;24.50;84.00;;;;;;4174474;28;20028;-67
2022/07/09 09:09:39;;;;;;;2.58;1.65;;;24.50;83.60;;;;;;4173143;28;20147;-67
2022/07/09 09:11:40;;;;;;;3.25;2.10;;;24.60;83.20;;;;;;4174765;28;20091;-68
2022/07/09 09:13:43;;;;;;;1.70;1.60;;;24.70;83.20;;;;;;4176262;28;20029;-67
2022/07/09 09:15:44;;;;;;;2.03;1.85;;;25.00;83.40;;;;;;4174665;28;20037;-68
2022/07/09 09:17:46;;;;;;;5.93;2.13;;;25.40;83.60;;;;;;4177171;28;20041;-68
2022/07/09 09:19:47;;;;;;;3.10;2.00;;;25.70;83.50;;;;;;4180569;28;20059;-67
2022/07/09 09:21:53;;;;;;;2.10;1.65;;;25.90;83.30;;;;;;4174312;28;20032;-67
2022/07/09 09:23:58;;;;;;;5.50;1.38;;;26.20;82.30;;;;;;4174462;28;20050;-68
2022/07/09 09:26:11;;;;;;;7.10;1.67;;;26.20;82.30;;;;;;4172898;28;20037;-69
2022/07/09 09:28:15;;;;;;;3.33;1.58;;;25.70;80.10;;;;;;4176431;28;20118;-69
2022/07/09 09:30:16;;;;;;;3.25;1.67;;;25.30;81.00;;;;;;4177829;28;20099;-68
2022/07/09 09:32:24;;;;;;;3.63;1.70;;;25.20;79.90;;;;;;4184114;28;20109;-69
2022/07/09 09:34:25;;;;;;;27.60;5.32;;;25.30;80.90;;;;;;4165142;28;20099;-68
2022/07/09 09:36:34;;;;;;;33.80;5.75;;;25.30;81.90;;;;;;4177671;28;20102;-67
2022/07/09 09:38:35;;;;;;;76.22;11.40;;;25.10;82.90;;;;;;4181126;28;20032;-71
2022/07/09 09:40:37;;;;;;;27.83;5.38;;;24.80;83.20;;;;;;4177463;28;20033;-69
2022/07/09 09:42:44;;;;;;;33.83;5.45;;;24.60;83.90;;;;;;4177056;28;20041;-68
2022/07/09 09:44:49;;;;;;;9.75;2.65;;;24.50;84.30;;;;;;4177703;28;20037;-68
2022/07/09 09:46:51;;;;;;;1.70;1.60;;;24.60;84.20;;;;;;4176199;28;20029;-68
2022/07/09 09:48:52;;;;;;;3.63;1.52;;;24.80;83.80;;;;;;4183562;28;20063;-67
2022/07/09 09:50:58;;;;;;;2.13;1.63;;;25.00;83.20;;;;;;4183030;28;20463;-71
2022/07/09 09:53:00;;;;;;;2.90;1.50;;;25.20;83.30;;;;;;4177728;28;20041;-69
2022/07/09 09:55:03;;;;;;;1.88;1.60;;;25.50;83.40;;;;;;4177562;28;20084;-69
2022/07/09 09:57:09;;;;;;;2.20;1.60;;;25.60;83.30;;;;;;4177866;28;20045;-68
2022/07/09 09:59:12;;;;;;;24.20;3.97;;;25.70;83.40;;;;;;4177235;28;20028;-67
2022/07/09 10:01:13;;;;;;;3.50;2.05;;;25.60;83.40;;;;;;4176385;28;20082;-69
2022/07/09 10:03:15;;;;;;;4.15;2.42;;;25.30;84.00;;;;;;4177047;28;20107;-68
2022/07/09 10:05:17;;;;;;;4.90;1.67;;;25.20;84.20;;;;;;4177173;28;20087;-68
2022/07/09 10:07:19;;;;;;;3.60;1.65;;;25.30;84.20;;;;;;4172455;28;20503;-69
2022/07/09 10:09:21;;;;;;;4.20;2.33;;;25.20;84.10;;;;;;4177252;28;20060;-68
2022/07/09 10:11:23;;;;;;;13.52;3.60;;;25.20;84.20;;;;;;4178220;28;20131;-70
2022/07/09 10:13:24;;;;;;;11.40;3.28;;;25.20;84.20;;;;;;4178169;28;20033;-72
2022/07/09 10:15:26;;;;;;;3.42;2.05;;;25.20;84.10;;;;;;4178413;28;20056;-67
2022/07/09 10:17:28;;;;;;;2.38;1.73;;;25.10;84.10;;;;;;4178110;28;20435;-70
2022/07/09 10:19:33;;;;;;;4.43;1.85;;;25.10;83.90;;;;;;4178499;28;20087;-68
2022/07/09 10:21:40;;;;;;;1.55;1.45;;;25.10;83.90;;;;;;4178159;28;20049;-70
2022/07/09 10:23:50;;;;;;;2.65;1.80;;;25.20;83.50;;;;;;4178666;28;20021;-69
2022/07/09 10:25:55;;;;;;;3.83;1.48;;;25.40;83.30;;;;;;4177837;28;20033;-68
2022/07/09 10:27:57;;;;;;;2.55;2.13;;;25.60;82.90;;;;;;4178953;28;20453;-66
2022/07/09 10:29:59;;;;;;;3.20;1.70;;;25.60;82.30;;;;;;4177444;28;20049;-69
2022/07/09 10:32:01;;;;;;;3.50;2.15;;;25.20;83.00;;;;;;4191796;28;20029;-70